createdAt,value
2023-02-11T00:00:44.346Z,101735.06
2023-02-11T00:02:47.998Z,101725.47
2023-02-11T00:04:50.216Z,101738.84
2023-02-11T00:06:55.113Z,101748.34
2023-02-11T00:08:57.242Z,101738.28
2023-02-11T00:11:05.414Z,101772.66
2023-02-11T00:13:08.099Z,101770.19
2023-02-11T00:15:10.582Z,101736.59
2023-02-11T00:17:32.283Z,101760.31
2023-02-11T00:19:54.709Z,101746.34
2023-02-11T00:22:17.177Z,101738.75
2023-02-11T00:24:39.528Z,101746.94
2023-02-11T00:26:42.112Z,101728.06
2023-02-11T00:28:44.509Z,101719.88
2023-02-11T00:30:46.670Z,101731.88
2023-02-11T00:32:51.171Z,101716.59
2023-02-11T00:34:55.284Z,101732.94
2023-02-11T00:36:57.394Z,101714.44
2023-02-11T00:39:00.128Z,101710.06
2023-02-11T00:41:02.201Z,101705.66
2023-02-11T00:43:04.228Z,101689.28
2023-02-11T00:45:26.664Z,101697.22
2023-02-11T00:47:49.085Z,101673.50
2023-02-11T00:50:11.403Z,101684.66
2023-02-11T00:52:33.782Z,101675.41
2023-02-11T00:54:56.211Z,101653.22
2023-02-11T00:57:18.563Z,101658.69
2023-02-11T00:59:22.200Z,101688.47
2023-02-11T01:01:24.473Z,101668.31
2023-02-11T01:03:26.658Z,101701.53
2023-02-11T01:05:30.158Z,101681.34
2023-02-11T01:07:32.258Z,101646.97
2023-02-11T01:09:34.308Z,101625.13
2023-02-11T01:11:56.664Z,101614.56
2023-02-11T01:13:59.095Z,101622.16
2023-02-11T01:16:01.375Z,101635.22
2023-02-11T01:18:05.175Z,101625.38
2023-02-11T01:20:09.132Z,101619.69
2023-02-11T01:22:11.167Z,101595.94
2023-02-11T01:24:13.173Z,101609.00
2023-02-11T01:26:35.529Z,101591.56
2023-02-11T01:29:00.129Z,101595.13
2023-02-11T01:31:22.549Z,101603.53
2023-02-11T01:33:44.975Z,101579.81
2023-02-11T01:36:07.788Z,101581.50
2023-02-11T01:38:30.422Z,101604.13
2023-02-11T01:40:56.292Z,101561.06
2023-02-11T01:43:18.910Z,101564.28
2023-02-11T01:45:50.133Z,101570.81
2023-02-11T01:47:58.096Z,101580.66
2023-02-11T01:50:00.169Z,101575.19
2023-02-11T01:52:30.076Z,101558.50
2023-02-11T01:55:25.889Z,101556.81
2023-02-11T01:57:51.796Z,101548.56
2023-02-11T02:00:42.703Z,101544.16
2023-02-11T02:03:20.137Z,101544.44
2023-02-11T02:05:25.435Z,101554.25
2023-02-11T02:07:52.709Z,101542.53
2023-02-11T02:10:00.762Z,101536.47
2023-02-11T02:12:02.815Z,101556.41
2023-02-11T02:14:04.866Z,101532.09
2023-02-11T02:16:36.691Z,101541.09
2023-02-11T02:19:38.975Z,101551.44
2023-02-11T02:22:14.347Z,101560.47
2023-02-11T02:25:50.553Z,101484.31
2023-02-11T02:28:36.545Z,101506.13
2023-02-11T02:31:59.159Z,101501.44
2023-02-11T02:34:47.916Z,101470.59
2023-02-11T02:37:31.325Z,101471.19
2023-02-11T02:39:53.678Z,101458.88
2023-02-11T02:42:16.365Z,101470.84
2023-02-11T02:44:38.702Z,101481.75
2023-02-11T02:47:01.087Z,101474.91
2023-02-11T02:49:23.513Z,101456.63
2023-02-11T02:52:27.667Z,101489.13
2023-02-11T02:55:12.005Z,101480.94
2023-02-11T02:57:48.295Z,101473.00
2023-02-11T03:00:30.173Z,101457.97
2023-02-11T03:03:44.532Z,101450.34
2023-02-11T03:06:26.785Z,101420.84
2023-02-11T03:09:01.685Z,101460.44
2023-02-11T03:11:24.049Z,101436.16
2023-02-11T03:13:46.819Z,101427.97
2023-02-11T03:16:13.930Z,101417.28
2023-02-11T03:18:36.487Z,101416.47
2023-02-11T03:20:42.528Z,101409.44
2023-02-11T03:22:56.057Z,101430.44
2023-02-11T03:24:58.074Z,101404.25
2023-02-11T03:27:39.535Z,101418.22
2023-02-11T03:30:06.289Z,101433.41
2023-02-11T03:32:32.966Z,101394.97
2023-02-11T03:35:09.133Z,101399.38
2023-02-11T03:37:43.757Z,101396.88
2023-02-11T03:40:19.032Z,101396.06
2023-02-11T03:42:53.715Z,101383.84
2023-02-11T03:45:10.925Z,101392.84
2023-02-11T03:47:13.154Z,101409.44
2023-02-11T03:49:15.624Z,101371.28
2023-02-11T03:51:27.439Z,101402.34
2023-02-11T03:53:29.487Z,101371.28
2023-02-11T03:55:32.177Z,101355.97
2023-02-11T03:57:45.335Z,101351.13
2023-02-11T03:59:57.635Z,101359.78
2023-02-11T04:01:59.671Z,101388.47
2023-02-11T04:04:18.189Z,101362.84
2023-02-11T04:06:20.317Z,101339.94
2023-02-11T04:08:22.345Z,101341.88
2023-02-11T04:10:30.111Z,101371.88
2023-02-11T04:12:32.168Z,101328.22
2023-02-11T04:14:34.236Z,101319.72
2023-02-11T04:16:38.181Z,101341.28
2023-02-11T04:18:40.221Z,101344.59
2023-02-11T04:20:42.232Z,101329.53
2023-02-11T04:22:45.158Z,101324.91
2023-02-11T04:24:47.215Z,101336.41
2023-02-11T04:26:49.350Z,101333.09
2023-02-11T04:28:51.437Z,101345.06
2023-02-11T04:30:53.461Z,101319.22
2023-02-11T04:32:55.468Z,101315.06
2023-02-11T04:34:58.027Z,101317.00
2023-02-11T04:37:00.096Z,101311.78
2023-02-11T04:39:02.192Z,101298.97
2023-02-11T04:41:04.425Z,101310.72
2023-02-11T04:43:06.555Z,101342.59
2023-02-11T04:45:09.117Z,101320.78
2023-02-11T04:47:15.420Z,101317.22
2023-02-11T04:49:17.646Z,101317.78
2023-02-11T04:51:19.670Z,101298.16
2023-02-11T04:53:24.132Z,101324.34
2023-02-11T04:55:26.162Z,101360.63
2023-02-11T04:57:28.253Z,101298.16
2023-02-11T04:59:31.155Z,101329.81
2023-02-11T05:01:33.335Z,101334.16
2023-02-11T05:03:35.505Z,101303.59
2023-02-11T05:05:48.294Z,101302.53
2023-02-11T05:07:50.655Z,101294.34
2023-02-11T05:09:52.684Z,101302.53
2023-02-11T05:12:15.253Z,101286.69
2023-02-11T05:14:37.633Z,101287.50
2023-02-11T05:16:40.177Z,101306.88
2023-02-11T05:18:42.858Z,101283.69
2023-02-11T05:20:44.887Z,101270.06
2023-02-11T05:23:08.414Z,101264.88
2023-02-11T05:25:30.784Z,101280.41
2023-02-11T05:27:32.797Z,101233.72
2023-02-11T05:29:34.821Z,101264.78
2023-02-11T05:31:40.063Z,101235.38
2023-02-11T05:33:42.288Z,101228.25
2023-02-11T05:35:44.344Z,101234.22
2023-02-11T05:37:46.516Z,101236.72
2023-02-11T05:39:48.716Z,101232.88
2023-02-11T05:41:50.693Z,101242.97
2023-02-11T05:44:13.091Z,101232.00
2023-02-11T05:46:35.503Z,101218.38
2023-02-11T05:48:52.438Z,101231.16
2023-02-11T05:50:54.472Z,101237.94
2023-02-11T05:52:56.501Z,101199.47
2023-02-11T05:55:04.415Z,101227.00
2023-02-11T05:57:06.420Z,101206.47
2023-02-11T05:59:08.440Z,101226.91
2023-02-11T06:01:22.152Z,101223.84
2023-02-11T06:03:24.216Z,101230.38
2023-02-11T06:05:26.515Z,101228.16
2023-02-11T06:07:48.921Z,101188.34
2023-02-11T06:10:11.412Z,101220.78
2023-02-11T06:12:13.505Z,101214.53
2023-02-11T06:14:15.581Z,101220.56
2023-02-11T06:16:17.645Z,101214.28
2023-02-11T06:18:19.810Z,101219.72
2023-02-11T06:20:21.906Z,101212.63
2023-02-11T06:22:23.928Z,101227.16
2023-02-11T06:24:50.971Z,101219.78
2023-02-11T06:26:48.101Z,101194.19
2023-02-11T06:28:50.239Z,101209.97
2023-02-11T06:30:52.424Z,101200.72
2023-02-11T06:32:55.108Z,101190.63
2023-02-11T06:34:57.121Z,101168.31
2023-02-11T06:36:59.184Z,101202.94
2023-02-11T06:39:01.250Z,101191.78
2023-02-11T06:41:03.383Z,101178.16
2023-02-11T06:43:05.518Z,101164.28
2023-02-11T06:45:13.237Z,101175.75
2023-02-11T06:47:15.317Z,101174.44
2023-02-11T06:49:17.346Z,101169.81
2023-02-11T06:51:19.396Z,101176.66
2023-02-11T06:53:21.487Z,101162.50
2023-02-11T06:55:23.606Z,101180.25
2023-02-11T06:57:25.715Z,101209.19
2023-02-11T06:59:27.758Z,101169.13
2023-02-11T07:01:29.911Z,101171.31
2023-02-11T07:03:50.962Z,101221.25
2023-02-11T07:06:18.037Z,101171.06
2023-02-11T07:08:42.482Z,101139.75
2023-02-11T07:11:11.450Z,101170.56
2023-02-11T07:13:13.521Z,101147.94
2023-02-11T07:15:33.872Z,101149.06
2023-02-11T07:17:54.151Z,101173.69
2023-02-11T07:20:16.905Z,101137.97
2023-02-11T07:22:39.259Z,101160.88
2023-02-11T07:25:01.657Z,101181.09
2023-02-11T07:27:24.057Z,101146.47
2023-02-11T07:29:29.074Z,101143.22
2023-02-11T07:31:31.558Z,101142.38
2023-02-11T07:33:39.723Z,101148.44
2023-02-11T07:36:01.452Z,101137.00
2023-02-11T07:38:21.364Z,101134.00
2023-02-11T07:40:41.842Z,101151.75
2023-02-11T07:43:04.351Z,101136.22
2023-02-11T07:45:07.080Z,101119.84
2023-02-11T07:47:09.143Z,101132.44
2023-02-11T07:49:12.221Z,101120.16
2023-02-11T07:51:19.069Z,101126.22
2023-02-11T07:53:21.141Z,101115.84
2023-02-11T07:55:23.254Z,101131.72
2023-02-11T07:57:25.385Z,101131.19
2023-02-11T07:59:27.600Z,101144.56
2023-02-11T08:01:30.315Z,101114.88
2023-02-11T08:03:39.906Z,101122.81
2023-02-11T08:06:12.660Z,101127.75
2023-02-11T08:08:33.627Z,101135.41
2023-02-11T08:10:56.025Z,101107.59
2023-02-11T08:13:18.387Z,101104.66
2023-02-11T08:15:40.864Z,101109.06
2023-02-11T08:18:03.334Z,101074.94
2023-02-11T08:20:25.660Z,101120.88
2023-02-11T08:22:48.020Z,101141.34
2023-02-11T08:25:10.371Z,101144.41
2023-02-11T08:27:32.790Z,101134.88
2023-02-11T08:29:55.605Z,101126.19
2023-02-11T08:32:18.042Z,101131.06
2023-02-11T08:34:40.762Z,101125.91
2023-02-11T08:36:52.616Z,101118.53
2023-02-11T08:39:08.574Z,101134.09
2023-02-11T08:41:18.202Z,101086.31
2023-02-11T08:43:26.207Z,101089.63
2023-02-11T08:45:28.640Z,101076.53
2023-02-11T08:47:31.506Z,101089.94
2023-02-11T08:49:34.168Z,101112.59
2023-02-11T08:51:36.159Z,101079.25
2023-02-11T08:53:38.213Z,101124.63
2023-02-11T08:55:40.348Z,101130.91
2023-02-11T08:57:42.371Z,101124.09
2023-02-11T08:59:44.434Z,101146.78
2023-02-11T09:01:47.865Z,101108.56
2023-02-11T09:03:50.028Z,101057.78
2023-02-11T09:06:06.916Z,101089.50
2023-02-11T09:08:29.390Z,101067.38
2023-02-11T09:10:51.960Z,101102.13
2023-02-11T09:13:14.672Z,101088.19
2023-02-11T09:15:37.049Z,101096.44
2023-02-11T09:17:40.058Z,101095.91
2023-02-11T09:19:42.101Z,101071.84
2023-02-11T09:21:44.481Z,101102.50
2023-02-11T09:24:06.678Z,101109.63
2023-02-11T09:26:10.704Z,101092.69
2023-02-11T09:28:12.784Z,101108.81
2023-02-11T09:30:14.933Z,101072.75
2023-02-11T09:32:17.068Z,101061.81
2023-02-11T09:34:19.208Z,101121.41
2023-02-11T09:36:40.370Z,101071.97
2023-02-11T09:38:42.918Z,101070.06
2023-02-11T09:40:45.374Z,101076.09
2023-02-11T09:43:04.278Z,100991.34
2023-02-11T09:45:13.425Z,101015.66
2023-02-11T09:47:24.519Z,101043.28
2023-02-11T09:49:39.133Z,101022.25
2023-02-11T09:51:44.366Z,100995.44
2023-02-11T09:53:49.461Z,100989.16
2023-02-11T09:55:57.286Z,101032.06
2023-02-11T09:58:03.580Z,101008.00
2023-02-11T10:00:17.110Z,101038.34
2023-02-11T10:02:47.982Z,101019.75
2023-02-11T10:05:26.480Z,100993.25
2023-02-11T10:07:34.652Z,101015.13
2023-02-11T10:10:21.863Z,101011.84
2023-02-11T10:12:46.404Z,101014.03
2023-02-11T10:15:24.646Z,101012.13
2023-02-11T10:17:52.746Z,101028.53
2023-02-11T10:20:08.382Z,101004.78
2023-02-11T10:22:35.472Z,100990.84
2023-02-11T10:24:37.701Z,101042.53
2023-02-11T10:26:57.996Z,100996.06
2023-02-11T10:29:44.003Z,101002.66
2023-02-11T10:32:45.042Z,100967.63
2023-02-11T10:34:47.075Z,101012.50
2023-02-11T10:37:07.689Z,100991.44
2023-02-11T10:39:26.750Z,101017.72
2023-02-11T10:41:51.504Z,101019.09
2023-02-11T10:43:53.530Z,100999.94
2023-02-11T10:45:56.392Z,101029.78
2023-02-11T10:48:00.977Z,101007.06
2023-02-11T10:50:25.919Z,101007.06
2023-02-11T10:52:30.586Z,101041.53
2023-02-11T10:54:32.736Z,101022.13
2023-02-11T10:56:36.594Z,101031.97
2023-02-11T10:58:47.156Z,101032.25
2023-02-11T11:00:53.290Z,101047.84
2023-02-11T11:03:17.702Z,101016.66
2023-02-11T11:05:32.732Z,101037.72
2023-02-11T11:07:34.870Z,101031.72
2023-02-11T11:09:53.542Z,101022.66
2023-02-11T11:11:56.138Z,101034.16
2023-02-11T11:13:59.967Z,101019.94
2023-02-11T11:16:13.852Z,100986.31
2023-02-11T11:18:23.033Z,101011.47
2023-02-11T11:20:32.130Z,101002.72
2023-02-11T11:22:34.159Z,101006.81
2023-02-11T11:24:44.631Z,101024.06
2023-02-11T11:26:51.691Z,101010.91
2023-02-11T11:29:02.703Z,101027.88
2023-02-11T11:31:05.166Z,101021.06
2023-02-11T11:33:20.625Z,101041.59
2023-02-11T11:35:30.473Z,101011.19
2023-02-11T11:37:33.572Z,101003.56
2023-02-11T11:39:35.604Z,101013.66
2023-02-11T11:41:37.829Z,101036.91
2023-02-11T11:43:40.116Z,101003.81
2023-02-11T11:46:03.013Z,101006.00
2023-02-11T11:48:14.718Z,100987.38
2023-02-11T11:50:38.109Z,101008.19
2023-02-11T11:53:05.290Z,101009.03
2023-02-11T11:55:27.367Z,101026.81
2023-02-11T11:57:30.730Z,101034.47
2023-02-11T11:59:32.763Z,101017.50
2023-02-11T12:01:47.778Z,101014.75
2023-02-11T12:04:10.617Z,101018.03
2023-02-11T12:06:53.743Z,101012.31
2023-02-11T12:09:14.208Z,101006.28
2023-02-11T12:11:26.579Z,101004.91
2023-02-11T12:13:54.785Z,101035.03
2023-02-11T12:16:27.429Z,101022.97
2023-02-11T12:18:50.157Z,101011.72
2023-02-11T12:20:58.043Z,101009.81
2023-02-11T12:23:24.248Z,101031.19
2023-02-11T12:26:12.269Z,101036.66
2023-02-11T12:28:55.109Z,101041.59
2023-02-11T12:31:22.881Z,101049.25
2023-02-11T12:33:50.980Z,101037.22
2023-02-11T12:35:56.876Z,101040.78
2023-02-11T12:38:59.514Z,101050.34
2023-02-11T12:41:46.865Z,101039.66
2023-02-11T12:43:48.874Z,101059.13
2023-02-11T12:46:12.558Z,101045.97
2023-02-11T12:48:50.458Z,101048.44
2023-02-11T12:51:16.554Z,101047.06
2023-02-11T12:54:15.099Z,101045.41
2023-02-11T12:57:27.887Z,101052.50
2023-02-11T13:00:05.421Z,101059.66
2023-02-11T13:02:54.405Z,101049.78
2023-02-11T13:05:34.737Z,101054.69
2023-02-11T13:08:17.104Z,101058.00
2023-02-11T13:10:38.680Z,101053.88
2023-02-11T13:12:59.353Z,101051.16
2023-02-11T13:15:06.834Z,101051.97
2023-02-11T13:17:21.773Z,101066.50
2023-02-11T13:19:34.023Z,101057.47
2023-02-11T13:21:59.918Z,101057.72
2023-02-11T13:24:37.171Z,101079.63
2023-02-11T13:27:10.515Z,101072.25
2023-02-11T13:29:32.984Z,101069.22
2023-02-11T13:31:35.152Z,101057.72
2023-02-11T13:33:43.312Z,101075.28
2023-02-11T13:36:10.710Z,101068.97
2023-02-11T13:38:27.688Z,101078.28
2023-02-11T13:40:38.090Z,101081.00
2023-02-11T13:42:58.092Z,101083.78
2023-02-11T13:45:00.409Z,101089.53
2023-02-11T13:47:05.045Z,101097.19
2023-02-11T13:49:25.370Z,101104.31
2023-02-11T13:51:40.657Z,101099.38
2023-02-11T13:53:53.429Z,101103.50
2023-02-11T13:56:08.831Z,101095.25
2023-02-11T13:58:27.360Z,101112.53
2023-02-11T14:00:35.345Z,101111.69
2023-02-11T14:02:55.858Z,101126.78
2023-02-11T14:05:22.241Z,101121.03
2023-02-11T14:07:50.260Z,101123.22
2023-02-11T14:09:57.063Z,101130.88
2023-02-11T14:12:24.474Z,101120.22
2023-02-11T14:14:33.937Z,101129.50
2023-02-11T14:16:38.619Z,101127.88
2023-02-11T14:18:55.945Z,101122.66
2023-02-11T14:21:25.871Z,101133.38
2023-02-11T14:23:27.925Z,101149.81
2023-02-11T14:25:29.966Z,101157.19
2023-02-11T14:27:47.674Z,101151.44
2023-02-11T14:30:23.545Z,101156.66
2023-02-11T14:32:50.894Z,101163.50
2023-02-11T14:35:10.800Z,101178.28
2023-02-11T14:37:28.071Z,101168.13
2023-02-11T14:40:00.763Z,101171.72
2023-02-11T14:42:02.993Z,101172.81
2023-02-11T14:44:06.780Z,101179.94
2023-02-11T14:46:09.829Z,101184.84
2023-02-11T14:48:19.768Z,101183.78
2023-02-11T14:50:45.528Z,101189.53
2023-02-11T14:52:47.531Z,101185.41
2023-02-11T14:54:49.873Z,101195.03
2023-02-11T14:57:14.963Z,101185.69
2023-02-11T14:59:22.215Z,101191.47
2023-02-11T15:01:36.042Z,101197.75
2023-02-11T15:03:38.915Z,101185.69
2023-02-11T15:05:41.200Z,101204.88
2023-02-11T15:07:49.210Z,101203.75
2023-02-11T15:09:52.936Z,101195.28
2023-02-11T15:11:55.279Z,101195.28
2023-02-11T15:13:59.154Z,101210.66
2023-02-11T15:16:06.615Z,101216.38
2023-02-11T15:18:10.498Z,101217.75
2023-02-11T15:20:26.088Z,101212.28
2023-02-11T15:22:33.562Z,101221.88
2023-02-11T15:24:36.277Z,101225.44
2023-02-11T15:26:38.424Z,101231.75
2023-02-11T15:28:48.919Z,101242.69
2023-02-11T15:31:16.977Z,101238.84
2023-02-11T15:33:23.327Z,101242.13
2023-02-11T15:35:37.724Z,101243.78
2023-02-11T15:37:40.904Z,101242.97
2023-02-11T15:39:43.308Z,101247.91
2023-02-11T15:41:45.518Z,101245.72
2023-02-11T15:43:50.825Z,101248.19
2023-02-11T15:45:57.058Z,101249.56
2023-02-11T15:48:20.630Z,101244.88
2023-02-11T15:50:26.977Z,101254.47
2023-02-11T15:52:29.195Z,101267.63
2023-02-11T15:54:32.624Z,101264.91
2023-02-11T15:56:43.572Z,101268.47
2023-02-11T15:58:47.636Z,101275.03
2023-02-11T16:00:51.829Z,101281.34
2023-02-11T16:02:54.230Z,101282.97
2023-02-11T16:05:04.965Z,101295.06
2023-02-11T16:07:07.137Z,101299.72
2023-02-11T16:09:12.776Z,101301.63
2023-02-11T16:11:30.578Z,101307.94
2023-02-11T16:13:35.514Z,101317.53
2023-02-11T16:15:49.705Z,101319.72
2023-02-11T16:17:53.294Z,101321.94
2023-02-11T16:19:55.578Z,101326.03
2023-02-11T16:22:00.156Z,101324.94
2023-02-11T16:24:02.678Z,101333.72
2023-02-11T16:26:33.099Z,101332.88
2023-02-11T16:28:37.206Z,101343.31
2023-02-11T16:30:39.908Z,101341.66
2023-02-11T16:32:41.840Z,101350.16
2023-02-11T16:34:44.055Z,101356.19
2023-02-11T16:36:47.136Z,101354.00
2023-02-11T16:38:49.290Z,101366.88
2023-02-11T16:40:56.432Z,101369.34
2023-02-11T16:42:58.517Z,101366.03
2023-02-11T16:45:00.546Z,101368.78
2023-02-11T16:47:28.055Z,101368.75
2023-02-11T16:49:50.400Z,101371.22
2023-02-11T16:52:14.512Z,101361.88
2023-02-11T16:54:17.211Z,101368.75
2023-02-11T16:56:19.281Z,101371.47
2023-02-11T16:58:21.478Z,101364.91
2023-02-11T17:00:24.093Z,101384.91
2023-02-11T17:02:31.994Z,101382.72
2023-02-11T17:04:34.579Z,101383.81
2023-02-11T17:06:36.606Z,101389.00
2023-02-11T17:08:39.551Z,101395.31
2023-02-11T17:10:41.794Z,101402.69
2023-02-11T17:12:43.851Z,101408.19
2023-02-11T17:14:45.883Z,101405.19
2023-02-11T17:16:48.187Z,101415.59
2023-02-11T17:19:12.530Z,101415.31
2023-02-11T17:21:14.721Z,101423.84
2023-02-11T17:23:17.085Z,101429.03
2023-02-11T17:25:19.305Z,101427.66
2023-02-11T17:27:21.436Z,101428.50
2023-02-11T17:29:36.071Z,101438.09
2023-02-11T17:31:39.402Z,101433.44
2023-02-11T17:33:41.553Z,101442.78
2023-02-11T17:36:10.720Z,101452.63
2023-02-11T17:38:21.129Z,101452.66
2023-02-11T17:40:23.174Z,101467.69
2023-02-11T17:42:25.307Z,101468.28
2023-02-11T17:44:34.230Z,101466.38
2023-02-11T17:46:36.425Z,101480.06
2023-02-11T17:48:38.789Z,101487.47
2023-02-11T17:50:46.070Z,101482.00
2023-02-11T17:52:48.125Z,101496.28
2023-02-11T17:54:50.391Z,101506.72
2023-02-11T17:56:58.647Z,101498.75
2023-02-11T17:59:02.511Z,101506.97
2023-02-11T18:01:04.761Z,101520.66
2023-02-11T18:03:27.219Z,101514.34
2023-02-11T18:05:37.288Z,101520.97
2023-02-11T18:07:39.553Z,101523.69
2023-02-11T18:09:41.952Z,101520.66
2023-02-11T18:12:05.448Z,101520.66
2023-02-11T18:14:27.857Z,101519.59
2023-02-11T18:16:38.706Z,101520.66
2023-02-11T18:18:41.146Z,101526.13
2023-02-11T18:20:43.350Z,101541.75
2023-02-11T18:22:49.124Z,101543.09
2023-02-11T18:24:54.403Z,101535.16
2023-02-11T18:26:56.497Z,101543.66
2023-02-11T18:29:18.691Z,101543.44
2023-02-11T18:31:22.042Z,101550.56
2023-02-11T18:33:24.202Z,101545.34
2023-02-11T18:35:49.215Z,101545.34
2023-02-11T18:38:11.711Z,101549.75
2023-02-11T18:40:34.205Z,101550.56
2023-02-11T18:42:46.201Z,101559.63
2023-02-11T18:45:10.011Z,101559.63
2023-02-11T18:47:12.028Z,101576.38
2023-02-11T18:49:36.252Z,101583.19
2023-02-11T18:51:41.024Z,101589.25
2023-02-11T18:54:01.780Z,101586.00
2023-02-11T18:56:23.448Z,101585.41
2023-02-11T18:58:37.744Z,101590.88
2023-02-11T19:00:41.647Z,101598.03
2023-02-11T19:02:43.724Z,101594.22
2023-02-11T19:04:47.165Z,101597.72
2023-02-11T19:06:55.284Z,101598.03
2023-02-11T19:09:00.288Z,101606.81
2023-02-11T19:11:42.702Z,101603.81
2023-02-11T19:14:10.195Z,101606.25
2023-02-11T19:16:14.023Z,101607.06
2023-02-11T19:18:16.240Z,101619.41
2023-02-11T19:20:20.233Z,101616.94
2023-02-11T19:22:40.993Z,101628.47
2023-02-11T19:24:43.048Z,101625.44
2023-02-11T19:26:51.554Z,101625.44
2023-02-11T19:28:53.742Z,101633.16
2023-02-11T19:30:55.927Z,101637.56
2023-02-11T19:33:18.574Z,101639.44
2023-02-11T19:35:40.928Z,101651.22
2023-02-11T19:38:04.870Z,101651.72
2023-02-11T19:40:27.242Z,101651.19
2023-02-11T19:42:43.248Z,101658.84
2023-02-11T19:45:05.786Z,101668.94
2023-02-11T19:47:07.823Z,101673.63
2023-02-11T19:49:14.382Z,101676.81
2023-02-11T19:51:16.742Z,101682.31
2023-02-11T19:53:18.856Z,101681.16
2023-02-11T19:55:21.095Z,101689.13
2023-02-11T19:57:23.197Z,101688.81
2023-02-11T19:59:25.346Z,101696.75
2023-02-11T20:01:32.244Z,101704.94
2023-02-11T20:03:34.541Z,101715.03
2023-02-11T20:05:39.854Z,101716.66
2023-02-11T20:07:41.997Z,101733.63
2023-02-11T20:10:02.437Z,101734.72
2023-02-11T20:12:22.946Z,101749.50
2023-02-11T20:14:32.058Z,101747.84
2023-02-11T20:16:47.499Z,101750.53
2023-02-11T20:18:50.976Z,101757.41
2023-02-11T20:21:19.447Z,101769.13
2023-02-11T20:23:42.172Z,101774.56
2023-02-11T20:26:11.520Z,101777.31
2023-02-11T20:28:32.251Z,101783.06
2023-02-11T20:30:58.825Z,101786.56
2023-02-11T20:33:11.605Z,101787.09
2023-02-11T20:35:17.096Z,101802.47
2023-02-11T20:37:19.288Z,101800.47
2023-02-11T20:39:41.313Z,101804.66
2023-02-11T20:42:04.098Z,101810.38
2023-02-11T20:44:27.265Z,101819.41
2023-02-11T20:46:50.606Z,101827.88
2023-02-11T20:49:21.467Z,101829.22
2023-02-11T20:51:44.316Z,101835.72
2023-02-11T20:54:07.112Z,101837.91
2023-02-11T20:56:13.499Z,101842.34
2023-02-11T20:58:15.752Z,101851.97
2023-02-11T21:00:18.871Z,101859.63
2023-02-11T21:02:24.863Z,101855.22
2023-02-11T21:04:29.606Z,101869.19
2023-02-11T21:06:45.692Z,101869.19
2023-02-11T21:08:54.293Z,101883.09
2023-02-11T21:10:56.752Z,101886.91
2023-02-11T21:13:10.834Z,101891.25
2023-02-11T21:15:20.083Z,101900.28
2023-02-11T21:17:22.413Z,101900.28
2023-02-11T21:19:24.571Z,101909.09
2023-02-11T21:21:47.060Z,101912.91
2023-02-11T21:23:49.122Z,101923.63
2023-02-11T21:25:54.956Z,101933.97
2023-02-11T21:28:00.225Z,101944.69
2023-02-11T21:30:02.390Z,101947.84
2023-02-11T21:32:07.144Z,101955.59
2023-02-11T21:34:29.594Z,101953.59
2023-02-11T21:36:52.437Z,101949.19
2023-02-11T21:39:15.250Z,101964.22
2023-02-11T21:41:37.760Z,101979.81
2023-02-11T21:44:00.165Z,101995.09
2023-02-11T21:46:22.845Z,101996.88
2023-02-11T21:48:45.345Z,102010.56
2023-02-11T21:51:32.744Z,102014.63
2023-02-11T21:53:59.812Z,102005.16
2023-02-11T21:56:22.568Z,102007.81
2023-02-11T21:58:45.794Z,102015.94
2023-02-11T22:01:16.572Z,102022.03
2023-02-11T22:03:39.127Z,102021.97
2023-02-11T22:06:06.433Z,102020.97
2023-02-11T22:08:30.443Z,102040.97
2023-02-11T22:10:52.837Z,102048.81
2023-02-11T22:13:15.206Z,102044.06
2023-02-11T22:15:37.562Z,102046.38
2023-02-11T22:17:59.914Z,102041.88
2023-02-11T22:20:22.850Z,102055.81
2023-02-11T22:22:45.224Z,102052.75
2023-02-11T22:25:08.067Z,102055.16
2023-02-11T22:27:30.429Z,102046.81
2023-02-11T22:29:53.081Z,102058.25
2023-02-11T22:32:17.745Z,102059.31
2023-02-11T22:34:40.279Z,102058.84
2023-02-11T22:37:02.839Z,102059.59
2023-02-11T22:39:25.310Z,102067.91
2023-02-11T22:41:47.958Z,102069.56
2023-02-11T22:44:10.668Z,102075.25
2023-02-11T22:46:33.138Z,102073.47
2023-02-11T22:48:55.530Z,102076.59
2023-02-11T22:51:23.445Z,102086.31
2023-02-11T22:53:59.162Z,102094.88
2023-02-11T22:56:21.713Z,102090.00
2023-02-11T22:58:44.227Z,102086.78
2023-02-11T23:01:06.946Z,102096.97
2023-02-11T23:03:29.535Z,102106.22
2023-02-11T23:05:31.895Z,102097.53
2023-02-11T23:07:33.951Z,102104.31
2023-02-11T23:09:35.969Z,102117.50
2023-02-11T23:11:45.089Z,102118.16
2023-02-11T23:13:47.892Z,102122.88
2023-02-11T23:15:49.912Z,102122.19
2023-02-11T23:18:12.744Z,102118.50
2023-02-11T23:20:24.222Z,102121.47
2023-02-11T23:22:26.281Z,102121.81
2023-02-11T23:24:28.309Z,102133.56
2023-02-11T23:26:38.026Z,102124.38
2023-02-11T23:28:40.276Z,102123.78
2023-02-11T23:30:42.450Z,102133.03
2023-02-11T23:32:44.548Z,102128.75
2023-02-11T23:34:46.636Z,102135.34
2023-02-11T23:36:48.695Z,102131.63
2023-02-11T23:38:51.166Z,102133.59
2023-02-11T23:40:53.188Z,102140.34
2023-02-11T23:42:55.229Z,102145.44
2023-02-11T23:44:57.340Z,102145.44
2023-02-11T23:46:59.408Z,102161.28
2023-02-11T23:49:04.233Z,102162.41
2023-02-11T23:51:14.077Z,102165.81
2023-02-11T23:53:16.126Z,102164.59
2023-02-11T23:55:18.224Z,102160.81
2023-02-11T23:57:20.379Z,102160.81
2023-02-11T23:59:22.433Z,102168.38
